createdAt,value
2023-03-30T00:00:51.870Z,4.00
2023-03-30T00:03:45.133Z,3.98
2023-03-30T00:06:38.282Z,3.20
2023-03-30T00:09:31.740Z,4.05
2023-03-30T00:15:05.940Z,3.45
2023-03-30T00:18:17.465Z,3.70
2023-03-30T00:21:11.321Z,4.08
2023-03-30T00:24:03.420Z,3.70
2023-03-30T00:26:55.137Z,4.65
2023-03-30T00:30:30.153Z,3.30
2023-03-30T00:33:37.110Z,3.52
2023-03-30T00:36:19.059Z,4.00
2023-03-30T00:39:10.748Z,3.25
2023-03-30T00:42:06.120Z,3.60
2023-03-30T00:45:21.865Z,3.70
2023-03-30T00:48:17.940Z,3.60
2023-03-30T00:51:12.438Z,3.80
2023-03-30T00:54:09.412Z,3.33
2023-03-30T00:57:01.325Z,4.15
2023-03-30T00:59:55.128Z,3.70
2023-03-30T01:02:49.972Z,3.72
2023-03-30T01:08:27.430Z,3.85
2023-03-30T01:11:18.769Z,3.30
2023-03-30T01:14:12.405Z,3.40
2023-03-30T01:17:08.818Z,3.45
2023-03-30T01:23:58.712Z,3.42
2023-03-30T01:26:55.335Z,3.00
2023-03-30T01:30:11.056Z,3.42
2023-03-30T01:33:55.204Z,2.90
2023-03-30T01:37:18.613Z,2.70
2023-03-30T01:42:59.864Z,2.70
2023-03-30T01:45:56.923Z,2.70
2023-03-30T01:51:40.851Z,3.17
2023-03-30T01:57:28.991Z,2.33
2023-03-30T02:00:23.446Z,2.75
2023-03-30T02:05:58.753Z,2.42
2023-03-30T02:08:54.686Z,2.22
2023-03-30T02:11:51.418Z,2.47
2023-03-30T02:14:44.281Z,2.25
2023-03-30T02:17:38.624Z,2.35
2023-03-30T02:23:44.337Z,2.58
2023-03-30T02:26:37.051Z,2.50
2023-03-30T02:32:20.135Z,2.35
2023-03-30T02:38:36.591Z,1.90
2023-03-30T02:41:52.238Z,2.67
2023-03-30T02:44:48.321Z,2.42
2023-03-30T02:50:56.888Z,1.82
2023-03-30T02:54:12.358Z,1.90
2023-03-30T02:57:29.567Z,2.20
2023-03-30T03:03:17.510Z,1.62
2023-03-30T03:09:32.515Z,2.30
2023-03-30T03:12:24.317Z,2.30
2023-03-30T03:15:16.676Z,2.85
2023-03-30T03:21:23.525Z,3.55
2023-03-30T03:24:16.971Z,3.05
2023-03-30T03:27:27.908Z,2.47
2023-03-30T03:33:22.765Z,3.62
2023-03-30T03:36:27.840Z,2.22
2023-03-30T03:39:19.594Z,2.95
2023-03-30T03:42:12.477Z,1.82
2023-03-30T03:45:07.847Z,2.08
2023-03-30T03:53:26.590Z,1.87
2023-03-30T03:56:19.800Z,1.72
2023-03-30T03:59:13.202Z,1.22
2023-03-30T04:02:05.585Z,1.45
2023-03-30T04:07:36.217Z,3.12
2023-03-30T04:10:29.282Z,1.62
2023-03-30T04:16:25.346Z,1.85
2023-03-30T04:19:18.601Z,3.02
2023-03-30T04:22:13.492Z,1.82
2023-03-30T04:28:05.433Z,1.55
2023-03-30T04:31:17.224Z,1.32
2023-03-30T04:38:08.160Z,1.62
2023-03-30T04:41:05.691Z,2.42
2023-03-30T04:43:59.347Z,3.45
2023-03-30T04:49:41.772Z,1.20
2023-03-30T04:55:34.221Z,1.55
2023-03-30T04:58:45.815Z,1.67
2023-03-30T05:01:41.699Z,1.52
2023-03-30T05:04:35.058Z,1.50
2023-03-30T05:07:34.408Z,1.52
2023-03-30T05:10:29.945Z,1.50
2023-03-30T05:13:40.689Z,1.40
2023-03-30T05:16:52.593Z,1.37
2023-03-30T05:23:14.003Z,1.22
2023-03-30T05:28:48.146Z,1.55
2023-03-30T05:31:41.149Z,0.98
2023-03-30T05:34:39.930Z,1.70
2023-03-30T05:37:35.440Z,4.22
2023-03-30T05:40:46.865Z,2.87
2023-03-30T05:43:41.960Z,1.77
2023-03-30T05:46:44.696Z,1.57
2023-03-30T05:52:30.963Z,1.80
2023-03-30T05:55:40.103Z,1.15
2023-03-30T05:58:36.056Z,1.10
2023-03-30T06:04:11.306Z,1.17
2023-03-30T06:07:02.767Z,1.17
2023-03-30T06:09:54.266Z,1.12
2023-03-30T06:12:47.032Z,1.10
2023-03-30T06:15:39.770Z,1.20
2023-03-30T06:18:32.132Z,1.02
2023-03-30T06:21:31.588Z,1.47
2023-03-30T06:24:40.741Z,1.60
2023-03-30T06:27:33.712Z,0.90
2023-03-30T06:30:25.058Z,1.37
2023-03-30T06:33:18.577Z,1.02
2023-03-30T06:36:14.989Z,1.00
2023-03-30T06:39:07.298Z,1.20
2023-03-30T06:41:58.389Z,1.10
2023-03-30T06:47:34.282Z,0.93
2023-03-30T06:53:38.290Z,0.80
2023-03-30T06:56:29.356Z,0.78
2023-03-30T06:59:24.902Z,1.02
2023-03-30T07:02:34.334Z,0.82
2023-03-30T07:05:43.993Z,1.02
2023-03-30T07:08:37.397Z,0.90
2023-03-30T07:11:29.844Z,1.00
2023-03-30T07:14:21.753Z,1.00
2023-03-30T07:17:14.145Z,1.10
2023-03-30T07:20:08.349Z,1.10
2023-03-30T07:23:01.342Z,1.10
2023-03-30T07:25:53.440Z,1.45
2023-03-30T07:28:46.849Z,1.90
2023-03-30T07:34:20.591Z,0.82
2023-03-30T07:37:13.209Z,0.90
2023-03-30T07:40:06.854Z,0.90
2023-03-30T07:42:59.137Z,1.00
2023-03-30T07:45:50.481Z,0.50
2023-03-30T07:48:43.742Z,0.90
2023-03-30T07:51:35.685Z,1.25
2023-03-30T07:54:43.033Z,0.80
2023-03-30T07:57:36.189Z,1.02
2023-03-30T08:00:28.106Z,1.00
2023-03-30T08:06:18.334Z,0.95
2023-03-30T08:11:51.938Z,0.90
2023-03-30T08:17:25.304Z,1.02
2023-03-30T08:20:16.748Z,1.05
2023-03-30T08:23:08.723Z,2.20
2023-03-30T08:28:39.498Z,1.45
2023-03-30T08:31:32.923Z,0.90
2023-03-30T08:34:24.493Z,1.10
2023-03-30T08:39:56.680Z,0.98
2023-03-30T08:42:58.290Z,1.02
2023-03-30T08:48:32.495Z,0.98
2023-03-30T08:51:27.193Z,1.30
2023-03-30T08:54:20.701Z,1.27
2023-03-30T08:57:17.383Z,1.00
2023-03-30T09:02:55.817Z,1.42
2023-03-30T09:05:52.084Z,1.20
2023-03-30T09:08:43.871Z,0.93
2023-03-30T09:11:37.863Z,1.35
2023-03-30T09:14:34.369Z,0.90
2023-03-30T09:20:12.794Z,1.05
2023-03-30T09:23:05.355Z,0.80
2023-03-30T09:26:03.630Z,1.22
2023-03-30T09:31:38.215Z,1.10
2023-03-30T09:34:34.221Z,1.57
2023-03-30T09:37:25.795Z,1.20
2023-03-30T09:40:41.702Z,1.40
2023-03-30T09:43:37.673Z,1.70
2023-03-30T09:46:28.830Z,0.47
2023-03-30T09:49:20.207Z,1.15
2023-03-30T09:52:17.143Z,1.10
2023-03-30T09:58:17.398Z,1.27
2023-03-30T10:01:12.748Z,1.00
2023-03-30T10:04:11.658Z,0.70
2023-03-30T10:07:12.990Z,1.30
2023-03-30T10:12:40.403Z,1.20
2023-03-30T10:15:32.631Z,0.93
2023-03-30T10:18:29.597Z,1.10
2023-03-30T10:21:25.243Z,1.12
2023-03-30T10:24:23.864Z,1.32
2023-03-30T10:30:41.232Z,1.10
2023-03-30T10:33:33.282Z,1.20
2023-03-30T10:36:26.605Z,0.80
2023-03-30T10:42:32.276Z,1.20
2023-03-30T10:45:29.585Z,1.20
2023-03-30T10:48:41.093Z,0.93
2023-03-30T10:51:39.399Z,1.45
2023-03-30T10:54:34.383Z,1.25
2023-03-30T10:57:28.750Z,1.30
2023-03-30T11:03:08.250Z,1.27
2023-03-30T11:06:04.073Z,1.12
2023-03-30T11:08:58.219Z,1.42
2023-03-30T11:11:53.887Z,1.90
2023-03-30T11:17:35.635Z,1.85
2023-03-30T11:20:29.629Z,2.85
2023-03-30T11:23:25.458Z,2.12
2023-03-30T11:26:21.081Z,1.87
2023-03-30T11:29:26.056Z,2.10
2023-03-30T11:36:24.343Z,1.20
2023-03-30T11:39:30.976Z,1.30
2023-03-30T11:42:18.954Z,1.20
2023-03-30T11:45:20.831Z,1.72
2023-03-30T11:51:14.302Z,1.17
2023-03-30T11:54:13.965Z,1.20
2023-03-30T11:57:14.871Z,1.40
2023-03-30T12:00:20.936Z,1.22
2023-03-30T12:03:25.393Z,1.32
2023-03-30T12:06:29.387Z,1.70
2023-03-30T12:12:13.860Z,1.02
2023-03-30T12:17:54.091Z,1.32
2023-03-30T12:23:31.518Z,1.62
2023-03-30T12:26:27.957Z,1.02
2023-03-30T12:29:58.558Z,1.35
2023-03-30T12:32:28.480Z,1.60
2023-03-30T12:38:46.476Z,1.52
2023-03-30T12:41:48.289Z,1.47
2023-03-30T12:47:37.389Z,1.22
2023-03-30T12:50:37.264Z,1.35
2023-03-30T12:54:06.124Z,1.30
2023-03-30T12:57:01.538Z,1.25
2023-03-30T13:02:57.933Z,1.32
2023-03-30T13:05:51.462Z,1.10
2023-03-30T13:08:44.121Z,1.72
2023-03-30T13:14:31.220Z,1.32
2023-03-30T13:17:24.156Z,1.17
2023-03-30T13:20:30.080Z,1.07
2023-03-30T13:26:35.107Z,1.85
2023-03-30T13:29:26.427Z,1.67
2023-03-30T13:32:22.197Z,2.12
2023-03-30T13:38:14.500Z,1.80
2023-03-30T13:41:16.531Z,1.60
2023-03-30T13:44:18.883Z,1.70
2023-03-30T13:47:15.461Z,1.75
2023-03-30T13:52:56.697Z,3.15
2023-03-30T13:55:50.366Z,1.60
2023-03-30T13:58:43.814Z,1.75
2023-03-30T14:04:33.416Z,2.00
2023-03-30T14:07:25.698Z,1.65
2023-03-30T14:10:21.719Z,1.87
2023-03-30T14:13:17.524Z,2.02
2023-03-30T14:16:09.305Z,2.08
2023-03-30T14:21:50.182Z,1.67
2023-03-30T14:24:42.812Z,1.60
2023-03-30T14:27:39.125Z,2.00
2023-03-30T14:33:11.502Z,1.77
2023-03-30T14:36:03.972Z,2.02
2023-03-30T14:38:58.058Z,1.67
2023-03-30T14:45:17.962Z,1.82
2023-03-30T14:48:10.607Z,2.27
2023-03-30T14:51:07.127Z,2.52
2023-03-30T14:53:58.690Z,2.05
2023-03-30T14:59:42.203Z,1.95
2023-03-30T15:02:34.568Z,3.65
2023-03-30T15:05:28.706Z,1.67
2023-03-30T15:08:22.396Z,2.15
2023-03-30T15:11:16.497Z,2.37
2023-03-30T15:14:10.639Z,1.87
2023-03-30T15:17:04.194Z,1.90
2023-03-30T15:19:57.332Z,1.90
2023-03-30T15:25:36.005Z,2.00
2023-03-30T15:28:27.512Z,2.00
2023-03-30T15:31:19.946Z,1.80
2023-03-30T15:34:18.332Z,2.00
2023-03-30T15:37:23.736Z,1.95
2023-03-30T15:40:34.737Z,2.02
2023-03-30T15:43:27.838Z,1.92
2023-03-30T15:46:19.371Z,1.60
2023-03-30T15:49:13.552Z,2.25
2023-03-30T15:54:55.487Z,2.42
2023-03-30T15:57:50.079Z,1.90
2023-03-30T16:00:42.311Z,2.05
2023-03-30T16:06:21.622Z,2.08
2023-03-30T16:09:13.187Z,2.27
2023-03-30T16:12:04.702Z,2.20
2023-03-30T16:14:57.115Z,1.80
2023-03-30T16:17:48.968Z,2.58
2023-03-30T16:23:19.892Z,1.98
2023-03-30T16:26:13.285Z,1.77
2023-03-30T16:29:05.508Z,2.00
2023-03-30T16:31:56.825Z,2.30
2023-03-30T16:50:38.372Z,2.30
2023-03-30T16:53:29.355Z,1.98
2023-03-30T16:56:21.828Z,2.25
2023-03-30T17:02:41.208Z,2.10
2023-03-30T17:05:32.762Z,2.33
2023-03-30T17:08:27.055Z,2.40
2023-03-30T17:11:18.782Z,2.05
2023-03-30T17:16:50.884Z,2.83
2023-03-30T17:19:42.837Z,2.67
2023-03-30T17:22:34.220Z,2.65
2023-03-30T17:25:26.676Z,3.05
2023-03-30T17:28:22.138Z,3.40
2023-03-30T17:31:17.473Z,4.15
2023-03-30T17:34:08.986Z,3.98
2023-03-30T17:37:00.266Z,3.37
2023-03-30T17:39:51.367Z,3.17
2023-03-30T17:42:42.295Z,3.58
2023-03-30T17:45:34.926Z,3.35
2023-03-30T17:48:26.596Z,3.47
2023-03-30T17:51:17.872Z,3.47
2023-03-30T17:54:09.303Z,2.72
2023-03-30T17:57:00.669Z,2.47
2023-03-30T17:59:51.856Z,2.25
2023-03-30T18:02:43.227Z,2.37
2023-03-30T18:05:35.577Z,3.00
2023-03-30T18:08:27.316Z,4.50
2023-03-30T18:11:18.968Z,4.90
2023-03-30T18:14:11.293Z,4.22
2023-03-30T18:17:06.943Z,3.47
2023-03-30T18:19:55.962Z,3.92
2023-03-30T18:22:47.401Z,3.98
2023-03-30T18:25:38.708Z,3.83
2023-03-30T18:28:31.792Z,4.08
2023-03-30T18:31:23.298Z,3.55
2023-03-30T18:34:14.540Z,3.20
2023-03-30T18:37:05.939Z,3.62
2023-03-30T18:39:57.288Z,3.70
2023-03-30T18:42:48.876Z,4.30
2023-03-30T18:45:41.749Z,3.55
2023-03-30T18:48:33.070Z,2.95
2023-03-30T18:51:24.509Z,3.20
2023-03-30T18:54:15.825Z,3.20
2023-03-30T18:57:07.195Z,3.17
2023-03-30T18:59:58.597Z,3.65
2023-03-30T19:02:50.583Z,3.33
2023-03-30T19:05:42.490Z,5.05
2023-03-30T19:08:33.977Z,4.50
2023-03-30T19:11:27.519Z,5.03
2023-03-30T19:14:18.861Z,5.08
2023-03-30T19:17:10.317Z,4.75
2023-03-30T19:20:01.867Z,3.47
2023-03-30T19:22:53.750Z,3.65
2023-03-30T19:25:46.476Z,3.20
2023-03-30T19:28:37.475Z,3.85
2023-03-30T19:31:28.921Z,4.15
2023-03-30T19:34:20.126Z,3.95
2023-03-30T19:37:13.285Z,3.83
2023-03-30T19:40:06.296Z,3.83
2023-03-30T19:42:57.624Z,3.70
2023-03-30T19:45:52.237Z,3.80
2023-03-30T19:48:43.841Z,3.70
2023-03-30T19:51:36.234Z,3.98
2023-03-30T19:54:28.053Z,4.10
2023-03-30T19:57:20.146Z,4.75
2023-03-30T20:02:53.041Z,3.77
2023-03-30T20:05:51.227Z,6.28
2023-03-30T20:08:43.813Z,4.12
2023-03-30T20:11:35.201Z,4.35
2023-03-30T20:14:27.884Z,4.80
2023-03-30T20:17:23.095Z,4.83
2023-03-30T20:20:18.912Z,3.72
2023-03-30T20:23:10.184Z,4.37
2023-03-30T20:28:41.442Z,3.85
2023-03-30T20:31:33.367Z,4.17
2023-03-30T20:34:26.584Z,3.50
2023-03-30T20:37:17.885Z,4.08
2023-03-30T20:40:12.358Z,3.70
2023-03-30T20:43:03.802Z,3.90
2023-03-30T20:45:58.552Z,3.75
2023-03-30T20:48:52.523Z,3.95
2023-03-30T20:51:46.132Z,3.75
2023-03-30T20:54:38.273Z,3.65
2023-03-30T20:57:30.094Z,3.25
2023-03-30T21:00:23.917Z,2.90
2023-03-30T21:06:03.343Z,3.37
2023-03-30T21:08:57.135Z,2.62
2023-03-30T21:11:49.130Z,3.27
2023-03-30T21:14:40.586Z,3.15
2023-03-30T21:17:32.329Z,2.70
2023-03-30T21:20:24.042Z,3.60
2023-03-30T21:23:16.503Z,2.55
2023-03-30T21:28:51.268Z,2.77
2023-03-30T21:31:42.513Z,3.08
2023-03-30T21:34:34.596Z,2.55
2023-03-30T21:37:26.503Z,2.30
2023-03-30T21:40:18.229Z,2.98
2023-03-30T21:43:12.672Z,3.50
2023-03-30T21:46:06.032Z,3.37
2023-03-30T21:48:57.834Z,4.10
2023-03-30T21:51:49.209Z,3.70
2023-03-30T21:54:41.109Z,3.90
2023-03-30T21:57:33.743Z,3.77
2023-03-30T22:00:25.282Z,3.47
2023-03-30T22:03:17.627Z,3.90
2023-03-30T22:06:11.337Z,3.33
2023-03-30T22:09:03.229Z,3.50
2023-03-30T22:11:55.790Z,2.77
2023-03-30T22:14:47.367Z,3.62
2023-03-30T22:17:43.999Z,3.50
2023-03-30T22:20:37.145Z,2.85
2023-03-30T22:23:30.871Z,4.10
2023-03-30T22:26:22.756Z,3.80
2023-03-30T22:29:15.046Z,3.17
2023-03-30T22:32:15.634Z,3.27
2023-03-30T22:35:08.572Z,3.55
2023-03-30T22:37:59.806Z,3.27
2023-03-30T22:40:51.359Z,3.90
2023-03-30T22:43:43.194Z,3.75
2023-03-30T22:46:34.917Z,3.95
2023-03-30T22:49:26.408Z,3.77
2023-03-30T22:52:17.967Z,3.67
2023-03-30T22:55:10.926Z,3.35
2023-03-30T22:58:02.422Z,4.22
2023-03-30T23:00:53.807Z,3.98
2023-03-30T23:03:45.145Z,3.62
2023-03-30T23:06:37.466Z,3.25
2023-03-30T23:09:31.237Z,3.15
2023-03-30T23:12:22.773Z,3.47
2023-03-30T23:15:17.969Z,4.03
2023-03-30T23:18:09.806Z,3.60
2023-03-30T23:21:03.400Z,3.52
2023-03-30T23:23:54.714Z,3.92
2023-03-30T23:26:46.597Z,3.65
2023-03-30T23:29:41.019Z,3.55
2023-03-30T23:32:33.561Z,3.40
2023-03-30T23:35:25.210Z,3.40
2023-03-30T23:38:19.340Z,3.52
2023-03-30T23:41:17.127Z,3.85
2023-03-30T23:44:09.904Z,3.30
2023-03-30T23:47:03.054Z,2.83
2023-03-30T23:49:57.420Z,3.80
2023-03-30T23:52:49.925Z,3.45
2023-03-30T23:55:44.462Z,3.02
2023-03-30T23:58:38.048Z,3.50
